createdAt,value
2022-08-09T00:00:04.373Z,11.37
2022-08-09T00:02:33.238Z,11.34
2022-08-09T00:05:03.579Z,11.26
2022-08-09T00:07:46.940Z,11.22
2022-08-09T00:10:18.165Z,11.21
2022-08-09T00:12:52.857Z,11.17
2022-08-09T00:15:35.466Z,11.29
2022-08-09T00:18:11.506Z,11.29
2022-08-09T00:20:42.268Z,11.23
2022-08-09T00:23:56.394Z,11.16
2022-08-09T00:26:08.197Z,11.08
2022-08-09T00:28:38.171Z,11.00
2022-08-09T00:31:09.164Z,11.06
2022-08-09T00:33:52.218Z,11.05
2022-08-09T00:36:22.086Z,11.00
2022-08-09T00:38:51.233Z,10.98
2022-08-09T00:44:19.144Z,10.91
2022-08-09T00:44:20.303Z,10.93
2022-08-09T00:46:57.782Z,10.86
2022-08-09T00:49:33.397Z,10.82
2022-08-09T00:52:02.064Z,10.72
2022-08-09T00:54:35.938Z,10.68
2022-08-09T00:57:08.959Z,10.70
2022-08-09T00:59:41.471Z,10.74
2022-08-09T01:02:15.743Z,10.64
2022-08-09T01:05:03.679Z,10.56
2022-08-09T01:07:59.993Z,10.54
2022-08-09T01:10:34.086Z,10.57
2022-08-09T01:13:07.412Z,10.48
2022-08-09T01:15:41.080Z,10.56
2022-08-09T01:18:29.887Z,10.52
2022-08-09T01:21:25.184Z,10.46
2022-08-09T01:24:19.176Z,10.45
2022-08-09T01:26:56.533Z,10.46
2022-08-09T01:29:55.313Z,10.48
2022-08-09T01:32:33.829Z,10.38
2022-08-09T01:35:29.039Z,10.30
2022-08-09T01:38:07.859Z,10.32
2022-08-09T01:40:38.031Z,10.35
2022-08-09T01:43:04.662Z,10.26
2022-08-09T01:45:33.222Z,10.23
2022-08-09T01:48:02.171Z,10.21
2022-08-09T01:50:37.145Z,10.15
2022-08-09T01:53:19.356Z,10.20
2022-08-09T01:55:47.043Z,10.12
2022-08-09T01:58:14.324Z,10.13
2022-08-09T02:00:43.391Z,10.20
2022-08-09T02:03:14.448Z,10.20
2022-08-09T02:06:03.617Z,10.22
2022-08-09T02:08:38.991Z,10.15
2022-08-09T02:11:17.346Z,9.98
2022-08-09T02:13:44.211Z,9.99
2022-08-09T02:16:33.872Z,9.86
2022-08-09T02:19:15.215Z,9.88
2022-08-09T02:21:44.848Z,9.90
2022-08-09T02:24:25.747Z,9.92
2022-08-09T02:26:54.818Z,9.89
2022-08-09T02:29:25.938Z,9.89
2022-08-09T02:31:52.597Z,9.92
2022-08-09T02:34:40.801Z,9.96
2022-08-09T02:37:11.998Z,9.95
2022-08-09T02:39:42.717Z,9.92
2022-08-09T02:42:17.893Z,9.95
2022-08-09T02:44:50.444Z,9.92
2022-08-09T02:47:18.017Z,9.79
2022-08-09T02:50:01.545Z,9.79
2022-08-09T02:52:36.774Z,9.72
2022-08-09T02:55:20.277Z,9.70
2022-08-09T02:58:00.733Z,9.67
2022-08-09T03:00:35.208Z,9.67
2022-08-09T03:03:06.360Z,9.64
2022-08-09T03:05:35.038Z,9.71
2022-08-09T03:08:02.157Z,9.76
2022-08-09T03:10:29.446Z,9.72
2022-08-09T03:12:56.324Z,9.61
2022-08-09T03:15:23.524Z,9.56
2022-08-09T03:17:53.896Z,9.46
2022-08-09T03:20:26.091Z,9.45
2022-08-09T03:22:58.346Z,9.47
2022-08-09T03:25:58.596Z,9.51
2022-08-09T03:28:28.130Z,9.52
2022-08-09T03:30:56.838Z,9.42
2022-08-09T03:33:23.551Z,9.39
2022-08-09T03:36:14.139Z,9.28
2022-08-09T03:38:41.966Z,9.31
2022-08-09T03:41:14.770Z,9.29
2022-08-09T03:43:43.408Z,9.21
2022-08-09T03:46:30.494Z,9.18
2022-08-09T03:48:59.050Z,9.11
2022-08-09T03:51:55.371Z,9.16
2022-08-09T03:54:17.816Z,9.05
2022-08-09T03:56:46.821Z,9.13
2022-08-09T03:59:21.171Z,9.09
2022-08-09T04:01:55.802Z,9.06
2022-08-09T04:04:24.562Z,9.03
2022-08-09T04:06:51.430Z,9.01
2022-08-09T04:09:48.057Z,8.96
2022-08-09T04:12:11.905Z,9.02
2022-08-09T04:15:00.242Z,9.03
2022-08-09T04:17:26.965Z,9.09
2022-08-09T04:19:56.516Z,9.10
2022-08-09T04:22:23.267Z,9.02
2022-08-09T04:24:49.898Z,8.95
2022-08-09T04:27:17.278Z,8.97
2022-08-09T04:29:50.123Z,9.00
2022-08-09T04:32:31.405Z,9.01
2022-08-09T04:35:01.265Z,9.01
2022-08-09T04:37:42.168Z,9.09
2022-08-09T04:40:28.517Z,9.19
2022-08-09T04:42:55.758Z,9.13
2022-08-09T04:45:23.730Z,9.13
2022-08-09T04:48:00.146Z,9.15
2022-08-09T04:50:34.982Z,9.11
2022-08-09T04:53:04.641Z,9.11
2022-08-09T04:55:37.918Z,9.22
2022-08-09T04:58:09.491Z,9.20
2022-08-09T05:00:36.627Z,9.24
2022-08-09T05:03:30.552Z,9.30
2022-08-09T05:06:04.346Z,9.32
2022-08-09T05:08:34.445Z,9.33
2022-08-09T05:11:02.490Z,9.31
2022-08-09T05:13:29.333Z,9.35
2022-08-09T05:16:00.189Z,9.37
2022-08-09T05:18:42.321Z,9.46
2022-08-09T05:21:22.911Z,9.53
2022-08-09T05:23:59.691Z,9.55
2022-08-09T05:26:36.126Z,9.64
2022-08-09T05:29:04.551Z,9.73
2022-08-09T05:31:44.139Z,9.77
2022-08-09T05:34:17.065Z,9.83
2022-08-09T05:36:44.310Z,9.88
2022-08-09T05:39:28.572Z,9.96
2022-08-09T05:41:56.817Z,10.04
2022-08-09T05:44:28.995Z,10.06
2022-08-09T05:46:59.985Z,10.10
2022-08-09T05:50:24.349Z,10.21
2022-08-09T05:52:13.172Z,10.34
2022-08-09T05:54:40.081Z,10.46
2022-08-09T05:57:07.701Z,10.57
2022-08-09T05:59:40.140Z,10.65
2022-08-09T06:02:08.543Z,10.74
2022-08-09T06:04:36.742Z,10.82
2022-08-09T06:07:03.888Z,10.90
2022-08-09T06:09:54.445Z,11.06
2022-08-09T06:12:17.205Z,11.24
2022-08-09T06:14:43.912Z,11.42
2022-08-09T06:17:12.254Z,11.62
2022-08-09T06:19:40.304Z,11.79
2022-08-09T06:22:15.014Z,11.93
2022-08-09T06:24:42.183Z,12.07
2022-08-09T06:27:08.897Z,12.19
2022-08-09T06:29:48.259Z,12.31
2022-08-09T06:32:58.735Z,12.39
2022-08-09T06:35:09.258Z,12.32
2022-08-09T06:37:50.720Z,12.39
2022-08-09T06:40:24.342Z,12.49
2022-08-09T06:42:51.254Z,12.55
2022-08-09T06:46:06.745Z,12.64
2022-08-09T06:48:04.741Z,12.90
2022-08-09T06:50:31.985Z,13.09
2022-08-09T06:52:58.718Z,13.21
2022-08-09T06:55:25.334Z,13.37
2022-08-09T06:58:03.198Z,13.38
2022-08-09T07:00:48.978Z,13.48
2022-08-09T07:03:27.025Z,13.59
2022-08-09T07:06:02.474Z,13.69
2022-08-09T07:08:30.542Z,13.99
2022-08-09T07:10:57.285Z,14.21
2022-08-09T07:13:28.160Z,14.35
2022-08-09T07:16:40.651Z,14.53
2022-08-09T07:18:43.369Z,14.71
2022-08-09T07:21:10.294Z,15.11
2022-08-09T07:23:56.758Z,15.71
2022-08-09T07:26:25.009Z,16.59
2022-08-09T07:29:08.304Z,17.49
2022-08-09T07:31:38.333Z,18.84
2022-08-09T07:34:20.315Z,19.56
2022-08-09T07:36:48.695Z,20.23
2022-08-09T07:39:20.355Z,20.99
2022-08-09T07:42:02.041Z,21.74
2022-08-09T07:44:33.033Z,22.55
2022-08-09T07:47:16.364Z,23.16
2022-08-09T07:50:04.418Z,23.80
2022-08-09T07:52:30.167Z,24.27
2022-08-09T07:54:57.524Z,24.67
2022-08-09T07:57:34.016Z,24.88
2022-08-09T08:00:08.775Z,24.94
2022-08-09T08:02:42.610Z,25.27
2022-08-09T08:05:17.499Z,25.63
2022-08-09T08:09:01.828Z,25.71
2022-08-09T08:10:34.390Z,26.00
2022-08-09T08:13:01.321Z,26.44
2022-08-09T08:15:30.373Z,26.85
2022-08-09T08:18:02.281Z,27.15
2022-08-09T08:20:32.716Z,27.26
2022-08-09T08:23:01.737Z,27.04
2022-08-09T08:25:40.341Z,27.15
2022-08-09T08:28:14.320Z,27.55
2022-08-09T08:30:42.918Z,27.67
2022-08-09T08:33:11.962Z,27.80
2022-08-09T08:35:58.772Z,28.15
2022-08-09T08:38:28.368Z,28.60
2022-08-09T08:40:55.511Z,28.71
2022-08-09T08:43:23.367Z,28.84
2022-08-09T08:46:04.142Z,28.98
2022-08-09T08:48:40.186Z,29.27
2022-08-09T08:51:18.296Z,29.39
2022-08-09T08:54:03.159Z,29.71
2022-08-09T08:56:41.116Z,29.65
2022-08-09T08:59:19.161Z,29.87
2022-08-09T09:01:52.701Z,29.76
2022-08-09T09:04:33.167Z,29.95
2022-08-09T09:07:09.024Z,29.80
2022-08-09T09:09:58.718Z,30.19
2022-08-09T09:12:24.502Z,30.34
2022-08-09T09:15:00.081Z,30.21
2022-08-09T09:17:30.769Z,30.58
2022-08-09T09:20:15.457Z,30.57
2022-08-09T09:23:01.737Z,30.71
2022-08-09T09:26:03.357Z,30.90
2022-08-09T09:29:01.763Z,30.50
2022-08-09T09:32:06.506Z,30.50
2022-08-09T09:34:14.589Z,30.43
2022-08-09T09:36:47.057Z,30.90
2022-08-09T09:39:22.151Z,30.96
2022-08-09T09:41:51.051Z,30.83
2022-08-09T09:44:31.757Z,29.91
2022-08-09T09:47:09.967Z,30.01
2022-08-09T09:49:56.362Z,30.61
2022-08-09T09:52:37.210Z,31.14
2022-08-09T09:55:24.097Z,31.40
2022-08-09T09:58:16.751Z,31.41
2022-08-09T10:00:53.788Z,31.56
2022-08-09T10:03:38.238Z,31.73
2022-08-09T10:06:06.611Z,31.95
2022-08-09T10:08:54.256Z,31.82
2022-08-09T10:12:01.277Z,31.48
2022-08-09T10:14:32.954Z,31.43
2022-08-09T10:17:39.294Z,31.76
2022-08-09T10:19:57.085Z,31.27
2022-08-09T10:22:36.890Z,31.24
2022-08-09T10:25:12.256Z,31.58
2022-08-09T10:27:56.345Z,32.04
2022-08-09T10:34:04.278Z,31.52
2022-08-09T10:35:57.696Z,31.57
2022-08-09T10:38:43.224Z,31.23
2022-08-09T10:41:15.094Z,31.23
2022-08-09T10:43:58.516Z,31.03
2022-08-09T10:46:54.596Z,30.20
2022-08-09T10:49:51.300Z,30.43
2022-08-09T10:52:45.942Z,30.17
2022-08-09T10:55:25.002Z,30.06
2022-08-09T10:57:55.440Z,30.33
2022-08-09T11:00:29.661Z,30.56
2022-08-09T11:03:50.529Z,30.75
2022-08-09T11:06:00.583Z,29.60
2022-08-09T11:08:47.409Z,29.71
2022-08-09T11:11:18.895Z,30.03
2022-08-09T11:13:49.981Z,29.64
2022-08-09T11:16:39.039Z,29.83
2022-08-09T11:19:07.970Z,29.81
2022-08-09T11:21:57.485Z,29.10
2022-08-09T11:25:04.309Z,28.70
2022-08-09T11:28:04.519Z,28.45
2022-08-09T11:30:33.753Z,27.23
2022-08-09T11:33:00.712Z,28.01
2022-08-09T11:35:50.387Z,28.14
2022-08-09T11:38:22.322Z,28.07
2022-08-09T11:40:55.505Z,27.87
2022-08-09T11:43:25.775Z,28.11
2022-08-09T11:46:01.688Z,28.23
2022-08-09T11:48:29.509Z,27.79
2022-08-09T11:53:03.627Z,27.58
2022-08-09T11:53:59.238Z,27.68
2022-08-09T11:56:42.712Z,27.51
2022-08-09T11:59:30.379Z,27.76
2022-08-09T12:02:16.264Z,28.14
2022-08-09T12:04:45.281Z,27.77
2022-08-09T12:07:11.978Z,27.66
2022-08-09T12:09:41.088Z,27.64
2022-08-09T12:12:20.336Z,27.27
2022-08-09T12:15:07.776Z,27.43
2022-08-09T12:17:43.677Z,27.59
2022-08-09T12:20:22.241Z,27.37
2022-08-09T12:22:58.526Z,27.48
2022-08-09T12:25:35.948Z,27.20
2022-08-09T12:29:15.304Z,26.50
2022-08-09T12:30:58.610Z,26.54
2022-08-09T12:33:35.242Z,26.90
2022-08-09T12:36:27.741Z,27.35
2022-08-09T12:38:58.896Z,27.13
2022-08-09T12:41:38.267Z,26.93
2022-08-09T12:44:07.975Z,27.01
2022-08-09T12:46:37.060Z,27.32
2022-08-09T12:49:03.908Z,27.55
2022-08-09T12:52:00.688Z,27.62
2022-08-09T12:54:17.126Z,27.69
2022-08-09T12:56:48.603Z,27.74
2022-08-09T12:59:24.487Z,27.75
2022-08-09T13:02:07.258Z,27.61
2022-08-09T13:04:38.594Z,27.53
2022-08-09T13:07:15.733Z,27.48
2022-08-09T13:09:52.710Z,27.53
2022-08-09T13:12:22.200Z,27.46
2022-08-09T13:14:53.857Z,27.11
2022-08-09T13:17:44.036Z,26.99
2022-08-09T13:20:18.870Z,27.16
2022-08-09T13:23:01.605Z,27.43
2022-08-09T13:25:42.312Z,27.44
2022-08-09T13:28:24.552Z,27.17
2022-08-09T13:32:13.315Z,26.82
2022-08-09T13:33:55.383Z,26.88
2022-08-09T13:36:38.171Z,26.92
2022-08-09T13:41:46.176Z,26.66
2022-08-09T13:42:11.016Z,26.36
2022-08-09T13:44:43.274Z,26.22
2022-08-09T13:47:26.917Z,26.42
2022-08-09T13:49:58.037Z,26.67
2022-08-09T13:52:28.332Z,26.89
2022-08-09T13:55:00.283Z,27.08
2022-08-09T13:57:39.898Z,27.20
2022-08-09T14:00:15.436Z,27.20
2022-08-09T14:03:17.122Z,27.25
2022-08-09T14:05:58.173Z,27.33
2022-08-09T14:08:17.613Z,27.02
2022-08-09T14:10:50.690Z,26.71
2022-08-09T14:13:21.570Z,26.30
2022-08-09T14:16:08.923Z,26.23
2022-08-09T14:18:37.470Z,26.41
2022-08-09T14:21:04.254Z,26.20
2022-08-09T14:23:40.633Z,26.09
2022-08-09T14:26:19.357Z,26.15
2022-08-09T14:28:46.195Z,26.10
2022-08-09T14:31:13.870Z,25.98
2022-08-09T14:33:40.439Z,25.89
2022-08-09T14:36:19.676Z,25.86
2022-08-09T14:38:52.652Z,26.10
2022-08-09T14:41:26.730Z,26.26
2022-08-09T14:44:02.812Z,26.26
2022-08-09T14:46:53.938Z,26.16
2022-08-09T14:49:16.881Z,26.02
2022-08-09T14:51:43.769Z,25.70
2022-08-09T14:54:10.363Z,25.71
2022-08-09T14:56:57.278Z,25.59
2022-08-09T14:59:24.245Z,25.50
2022-08-09T15:01:50.868Z,25.58
2022-08-09T15:04:18.361Z,25.78
2022-08-09T15:06:49.738Z,26.03
2022-08-09T15:09:16.544Z,26.21
2022-08-09T15:12:03.848Z,26.39
2022-08-09T15:14:33.890Z,26.36
2022-08-09T15:17:00.868Z,26.15
2022-08-09T15:19:36.234Z,25.78
2022-08-09T15:22:03.259Z,25.50
2022-08-09T15:24:29.990Z,25.12
2022-08-09T15:26:57.786Z,24.93
2022-08-09T15:30:58.436Z,24.72
2022-08-09T15:32:28.634Z,24.82
2022-08-09T15:34:56.723Z,25.14
2022-08-09T15:37:24.268Z,25.24
2022-08-09T15:40:11.703Z,25.38
2022-08-09T15:42:39.114Z,25.50
2022-08-09T15:45:06.527Z,25.69
2022-08-09T15:47:52.651Z,25.50
2022-08-09T15:50:28.988Z,25.55
2022-08-09T15:53:06.301Z,25.78
2022-08-09T15:55:34.598Z,25.88
2022-08-09T15:58:27.166Z,25.88
2022-08-09T16:00:54.207Z,25.78
2022-08-09T16:03:37.930Z,25.82
2022-08-09T16:06:07.238Z,25.74
2022-08-09T16:08:53.802Z,25.72
2022-08-09T16:11:20.473Z,25.68
2022-08-09T16:14:03.859Z,25.57
2022-08-09T16:16:37.302Z,25.52
2022-08-09T16:19:05.771Z,25.41
2022-08-09T16:21:35.084Z,25.22
2022-08-09T16:24:03.068Z,25.04
2022-08-09T16:26:34.630Z,24.85
2022-08-09T16:29:11.789Z,24.70
2022-08-09T16:32:17.934Z,24.54
2022-08-09T16:34:27.029Z,24.30
2022-08-09T16:36:56.189Z,24.18
2022-08-09T16:39:25.923Z,24.06
2022-08-09T16:42:02.998Z,23.89
2022-08-09T16:44:32.209Z,23.86
2022-08-09T16:47:03.787Z,23.64
2022-08-09T16:50:32.578Z,23.55
2022-08-09T16:52:19.137Z,23.63
2022-08-09T16:54:45.897Z,23.74
2022-08-09T16:57:12.540Z,23.85
2022-08-09T16:59:43.969Z,23.80
2022-08-09T17:02:17.720Z,23.77
2022-08-09T17:04:44.549Z,23.72
2022-08-09T17:08:45.795Z,23.49
2022-08-09T17:10:03.896Z,23.43
2022-08-09T17:12:30.842Z,23.18
2022-08-09T17:14:58.412Z,23.15
2022-08-09T17:17:26.805Z,23.08
2022-08-09T17:20:29.797Z,23.15
2022-08-09T17:22:50.616Z,23.00
2022-08-09T17:25:19.503Z,23.02
2022-08-09T17:27:49.507Z,22.96
2022-08-09T17:30:25.712Z,22.91
2022-08-09T17:32:52.955Z,22.94
2022-08-09T17:35:20.072Z,22.81
2022-08-09T17:38:11.682Z,22.74
2022-08-09T17:40:34.528Z,22.63
2022-08-09T17:43:32.717Z,22.55
2022-08-09T17:46:04.184Z,22.54
2022-08-09T17:48:34.733Z,22.44
2022-08-09T17:51:09.785Z,22.32
2022-08-09T17:53:51.489Z,22.28
2022-08-09T17:56:28.775Z,22.30
2022-08-09T17:58:59.933Z,22.24
2022-08-09T18:02:03.717Z,22.09
2022-08-09T18:04:14.102Z,22.04
2022-08-09T18:06:40.857Z,22.09
2022-08-09T18:09:16.305Z,21.93
2022-08-09T18:12:04.917Z,21.91
2022-08-09T18:14:29.983Z,21.79
2022-08-09T18:16:56.723Z,21.77
2022-08-09T18:20:55.739Z,21.66
2022-08-09T18:22:13.217Z,21.66
2022-08-09T18:24:45.692Z,21.66
2022-08-09T18:27:13.814Z,21.45
2022-08-09T18:30:34.774Z,21.29
2022-08-09T18:32:46.888Z,21.11
2022-08-09T18:35:58.199Z,21.05
2022-08-09T18:38:08.018Z,20.91
2022-08-09T18:40:35.458Z,20.76
2022-08-09T18:43:03.424Z,20.63
2022-08-09T18:46:46.176Z,20.48
2022-08-09T18:48:17.970Z,20.39
2022-08-09T18:50:44.610Z,20.23
2022-08-09T18:53:16.474Z,20.19
2022-08-09T18:55:55.953Z,20.00
2022-08-09T18:58:32.103Z,19.87
2022-08-09T19:01:00.436Z,19.71
2022-08-09T19:03:29.222Z,19.67
2022-08-09T19:06:15.873Z,19.41
2022-08-09T19:08:42.642Z,19.32
2022-08-09T19:11:27.425Z,19.21
2022-08-09T19:14:05.162Z,19.04
2022-08-09T19:16:36.299Z,18.86
2022-08-09T19:19:21.557Z,18.72
2022-08-09T19:21:51.983Z,18.66
2022-08-09T19:24:39.292Z,18.55
2022-08-09T19:27:18.490Z,18.49
2022-08-09T19:30:23.166Z,18.31
2022-08-09T19:32:32.593Z,18.22
2022-08-09T19:35:00.372Z,18.12
2022-08-09T19:37:27.041Z,18.00
2022-08-09T19:40:04.046Z,17.94
2022-08-09T19:42:32.186Z,17.90
2022-08-09T19:45:00.037Z,17.79
2022-08-09T19:47:27.847Z,17.71
2022-08-09T19:50:05.162Z,17.59
2022-08-09T19:52:37.191Z,17.38
2022-08-09T19:55:16.721Z,17.36
2022-08-09T19:57:46.225Z,17.36
2022-08-09T20:00:15.308Z,17.37
2022-08-09T20:04:18.018Z,17.22
2022-08-09T20:05:29.510Z,17.13
2022-08-09T20:08:12.940Z,16.95
2022-08-09T20:10:42.853Z,16.88
2022-08-09T20:13:11.037Z,16.91
2022-08-09T20:16:33.818Z,16.73
2022-08-09T20:18:28.151Z,16.75
2022-08-09T20:20:56.033Z,16.61
2022-08-09T20:23:24.880Z,16.45
2022-08-09T20:26:06.971Z,16.39
2022-08-09T20:28:38.723Z,16.31
2022-08-09T20:31:15.326Z,16.10
2022-08-09T20:33:44.058Z,16.11
2022-08-09T20:36:11.233Z,16.06
2022-08-09T20:39:02.892Z,16.06
2022-08-09T20:41:32.121Z,16.06
2022-08-09T20:44:01.362Z,15.77
2022-08-09T20:46:41.694Z,15.71
2022-08-09T20:49:10.381Z,15.62
2022-08-09T20:51:41.459Z,15.49
2022-08-09T20:54:16.772Z,15.45
2022-08-09T20:56:46.938Z,15.40
2022-08-09T20:59:17.045Z,15.29
2022-08-09T21:01:50.260Z,15.27
2022-08-09T21:05:51.412Z,15.20
2022-08-09T21:07:11.514Z,15.10
2022-08-09T21:09:45.646Z,15.01
2022-08-09T21:14:41.896Z,14.88
2022-08-09T21:18:23.636Z,14.73
2022-08-09T21:20:06.345Z,14.66
2022-08-09T21:22:46.919Z,14.46
2022-08-09T21:25:14.111Z,14.50
2022-08-09T21:27:50.951Z,14.47
2022-08-09T21:30:18.884Z,14.47
2022-08-09T21:32:45.589Z,14.55
2022-08-09T21:35:12.356Z,14.45
2022-08-09T21:37:47.204Z,14.26
2022-08-09T21:40:30.231Z,14.04
2022-08-09T21:43:00.955Z,14.14
2022-08-09T21:45:27.638Z,14.08
2022-08-09T21:47:54.269Z,13.95
2022-08-09T21:50:35.793Z,14.00
2022-08-09T21:53:06.076Z,13.84
2022-08-09T21:55:32.741Z,13.87
2022-08-09T21:58:01.113Z,13.78
2022-08-09T22:00:33.329Z,13.69
2022-08-09T22:03:01.808Z,13.60
2022-08-09T22:05:36.185Z,13.51
2022-08-09T22:08:04.782Z,13.49
2022-08-09T22:10:31.487Z,13.36
2022-08-09T22:12:59.903Z,13.32
2022-08-09T22:15:34.986Z,13.16
2022-08-09T22:18:02.305Z,13.06
2022-08-09T22:20:31.309Z,12.98
2022-08-09T22:22:58.318Z,12.95
2022-08-09T22:26:05.664Z,12.88
2022-08-09T22:28:12.060Z,12.82
2022-08-09T22:30:39.233Z,12.86
2022-08-09T22:33:17.365Z,12.80
2022-08-09T22:36:01.272Z,12.70
2022-08-09T22:38:30.163Z,12.70
2022-08-09T22:40:58.563Z,12.67
2022-08-09T22:44:01.314Z,12.66
2022-08-09T22:48:18.482Z,12.55
2022-08-09T22:49:01.818Z,12.49
2022-08-09T22:51:38.251Z,12.47
2022-08-09T22:54:05.665Z,12.41
2022-08-09T22:56:34.923Z,12.42
2022-08-09T22:59:05.724Z,12.29
2022-08-09T23:01:49.403Z,12.20
2022-08-09T23:04:16.322Z,12.15
2022-08-09T23:06:43.939Z,12.10
2022-08-09T23:09:11.925Z,12.10
2022-08-09T23:11:38.497Z,12.08
2022-08-09T23:14:09.888Z,12.11
2022-08-09T23:16:43.550Z,12.03
2022-08-09T23:19:10.186Z,12.10
2022-08-09T23:21:38.596Z,12.02
2022-08-09T23:24:07.348Z,11.96
2022-08-09T23:26:37.779Z,11.95
2022-08-09T23:29:08.733Z,11.94
2022-08-09T23:31:35.312Z,11.90
2022-08-09T23:34:02.500Z,11.91
2022-08-09T23:36:30.376Z,11.91
2022-08-09T23:38:57.001Z,11.75
2022-08-09T23:41:28.761Z,11.62
2022-08-09T23:43:58.086Z,11.47
2022-08-09T23:46:24.768Z,11.46
2022-08-09T23:48:51.408Z,11.41
2022-08-09T23:51:18.081Z,11.43
2022-08-09T23:53:44.713Z,11.52
2022-08-09T23:56:13.967Z,11.34
2022-08-09T23:58:41.286Z,11.33
